createdAt,value
2022-08-26T00:02:54.181Z,8.32
2022-08-26T00:06:17.587Z,7.22
2022-08-26T00:09:47.327Z,8.32
2022-08-26T00:13:11.619Z,6.47
2022-08-26T00:16:34.802Z,8.93
2022-08-26T00:19:59.178Z,8.05
2022-08-26T00:23:24.151Z,9.07
2022-08-26T00:26:47.785Z,11.93
2022-08-26T00:30:14.932Z,9.13
2022-08-26T00:33:38.145Z,10.63
2022-08-26T00:37:02.805Z,9.73
2022-08-26T00:40:32.406Z,9.32
2022-08-26T00:43:55.491Z,10.70
2022-08-26T00:47:25.791Z,14.38
2022-08-26T00:50:59.403Z,20.00
2022-08-26T00:54:28.007Z,17.58
2022-08-26T00:57:52.670Z,17.83
2022-08-26T01:01:16.584Z,18.85
2022-08-26T01:04:40.798Z,19.52
2022-08-26T01:08:05.706Z,34.42
2022-08-26T01:11:30.243Z,21.08
2022-08-26T01:14:53.512Z,35.28
2022-08-26T01:18:17.094Z,18.38
2022-08-26T01:21:46.265Z,17.15
2022-08-26T01:25:11.047Z,27.73
2022-08-26T01:28:35.865Z,30.15
2022-08-26T01:31:59.787Z,20.63
2022-08-26T01:35:22.984Z,29.67
2022-08-26T01:38:46.370Z,29.10
2022-08-26T01:42:14.104Z,27.88
2022-08-26T01:45:40.455Z,22.45
2022-08-26T01:49:07.789Z,36.25
2022-08-26T01:52:33.965Z,32.28
2022-08-26T01:55:58.769Z,22.63
2022-08-26T01:59:25.192Z,20.90
2022-08-26T02:03:12.636Z,23.02
2022-08-26T02:06:38.613Z,37.38
2022-08-26T02:10:05.143Z,28.42
2022-08-26T02:13:31.339Z,27.67
2022-08-26T02:16:57.459Z,28.13
2022-08-26T02:20:21.937Z,25.50
2022-08-26T02:23:45.604Z,32.30
2022-08-26T02:27:14.735Z,36.80
2022-08-26T02:30:40.972Z,23.42
2022-08-26T02:34:13.198Z,20.33
2022-08-26T02:37:38.423Z,25.35
2022-08-26T02:41:05.598Z,30.73
2022-08-26T02:44:31.145Z,29.25
2022-08-26T02:47:58.493Z,36.95
2022-08-26T02:51:24.130Z,40.53
2022-08-26T02:54:47.241Z,34.80
2022-08-26T02:58:12.661Z,25.42
2022-08-26T03:01:37.039Z,23.48
2022-08-26T03:05:02.406Z,23.48
2022-08-26T03:08:26.929Z,28.50
2022-08-26T03:11:50.267Z,34.10
2022-08-26T03:15:17.859Z,30.20
2022-08-26T03:18:42.161Z,30.75
2022-08-26T03:22:05.633Z,30.45
2022-08-26T03:25:30.078Z,26.52
2022-08-26T03:29:10.728Z,28.75
2022-08-26T03:32:33.773Z,27.15
2022-08-26T03:35:56.792Z,26.05
2022-08-26T03:39:19.847Z,32.15
2022-08-26T03:42:44.513Z,25.00
2022-08-26T03:46:10.492Z,31.85
2022-08-26T03:49:34.166Z,24.23
2022-08-26T03:52:57.237Z,21.02
2022-08-26T03:56:20.358Z,25.00
2022-08-26T03:59:45.290Z,20.90
2022-08-26T04:03:09.974Z,24.30
2022-08-26T04:06:35.577Z,28.67
2022-08-26T04:09:59.598Z,23.88
2022-08-26T04:13:22.629Z,24.38
2022-08-26T04:16:47.269Z,19.25
2022-08-26T04:20:13.810Z,25.52
2022-08-26T04:23:47.808Z,20.35
2022-08-26T04:27:11.136Z,19.17
2022-08-26T04:30:37.690Z,16.20
2022-08-26T04:34:02.829Z,17.38
2022-08-26T04:37:25.821Z,17.23
2022-08-26T04:40:48.915Z,21.85
2022-08-26T04:44:12.152Z,20.65
2022-08-26T04:47:35.586Z,14.90
2022-08-26T04:51:00.962Z,12.60
2022-08-26T04:54:23.916Z,16.67
2022-08-26T04:57:48.407Z,12.30
2022-08-26T05:01:11.569Z,14.38
2022-08-26T05:04:35.116Z,15.20
2022-08-26T05:07:59.505Z,16.20
2022-08-26T05:11:22.795Z,13.38
2022-08-26T05:14:46.342Z,16.40
2022-08-26T05:18:10.462Z,17.02
2022-08-26T05:21:35.093Z,19.48
2022-08-26T05:24:59.468Z,15.73
2022-08-26T05:28:23.121Z,16.45
2022-08-26T05:31:46.190Z,12.00
2022-08-26T05:35:10.384Z,18.73
2022-08-26T05:38:33.422Z,12.82
2022-08-26T05:41:57.843Z,20.63
2022-08-26T05:45:24.106Z,14.10
2022-08-26T05:48:47.126Z,16.17
2022-08-26T05:52:10.332Z,14.27
2022-08-26T05:55:33.645Z,18.48
2022-08-26T05:58:58.702Z,18.23
2022-08-26T06:02:22.870Z,12.82
2022-08-26T06:05:45.960Z,16.50
2022-08-26T06:09:11.222Z,16.50
2022-08-26T06:12:35.063Z,12.20
2022-08-26T06:16:00.932Z,13.48
2022-08-26T06:19:24.477Z,15.15
2022-08-26T06:23:05.174Z,15.45
2022-08-26T06:26:28.603Z,14.32
2022-08-26T06:29:52.159Z,16.42
2022-08-26T06:33:16.783Z,14.60
2022-08-26T06:36:43.971Z,17.55
2022-08-26T06:40:08.381Z,17.60
